Time;durP1;ratioP1;P1;durP2;ratioP2;P2;SDS_P1;SDS_P2;PMS_P1;PMS_P2;Temp;Humidity;BMP_temperature;BMP_pressure;BME280_temperature;BME280_humidity;BME280_pressure;Samples;Min_cycle;Max_cycle;Signal;HPM_P1;HPM_P2
2021/04/03 00:00:35;;;;;;;11.73;4.78;;;7.50;99.90;;;;;;5036170;28;20342;-75
2021/04/03 00:03:03;;;;;;;7.38;4.13;;;7.50;99.90;;;;;;5031337;28;20197;-73
2021/04/03 00:05:30;;;;;;;11.88;4.80;;;7.40;99.90;;;;;;5030544;28;20764;-74
2021/04/03 00:08:02;;;;;;;9.05;4.78;;;7.40;99.90;;;;;;5031550;28;20197;-77
2021/04/03 00:10:39;;;;;;;12.88;4.35;;;7.40;99.90;;;;;;5029908;28;20316;-75
2021/04/03 00:13:05;;;;;;;10.60;4.57;;;7.40;99.90;;;;;;5032460;28;20209;-73
2021/04/03 00:15:31;;;;;;;7.20;4.45;;;7.40;99.90;;;;;;5014422;28;20343;-74
2021/04/03 00:17:58;;;;;;;8.40;4.50;;;7.40;99.90;;;;;;5031138;28;20193;-75
2021/04/03 00:20:27;;;;;;;10.63;5.55;;;7.30;99.90;;;;;;5031784;28;20225;-76
2021/04/03 00:22:53;;;;;;;7.20;5.68;;;7.40;99.90;;;;;;5014852;28;20228;-74
2021/04/03 00:25:20;;;;;;;12.07;4.75;;;7.40;99.90;;;;;;5013994;28;20233;-73
2021/04/03 00:27:46;;;;;;;7.80;5.28;;;7.40;99.90;;;;;;5014179;28;20185;-77
2021/04/03 00:30:17;;;;;;;10.13;5.95;;;7.40;99.90;;;;;;5031899;28;20229;-74
2021/04/03 00:32:54;;;;;;;11.55;6.57;;;7.30;99.90;;;;;;5032089;28;20276;-73
2021/04/03 00:35:29;;;;;;;14.07;5.95;;;7.40;99.90;;;;;;5031557;28;20229;-74
2021/04/03 00:37:57;;;;;;;12.52;5.55;;;7.30;99.90;;;;;;5032384;28;20224;-76
2021/04/03 00:40:31;;;;;;;10.38;4.70;;;7.30;99.90;;;;;;5030034;28;20217;-75
2021/04/03 00:42:59;;;;;;;15.25;7.00;;;7.40;99.90;;;;;;5014292;28;20203;-73
2021/04/03 00:45:28;;;;;;;10.95;5.93;;;7.40;99.90;;;;;;5013248;28;20726;-74
2021/04/03 00:47:55;;;;;;;12.77;6.60;;;7.30;99.90;;;;;;5014588;28;20185;-75
2021/04/03 00:50:26;;;;;;;15.20;6.70;;;7.30;99.90;;;;;;5030019;28;20579;-75
2021/04/03 00:52:52;;;;;;;7.47;5.22;;;7.20;99.90;;;;;;5014742;28;20199;-73
2021/04/03 00:55:19;;;;;;;13.13;5.43;;;7.20;99.90;;;;;;5030954;28;20228;-74
2021/04/03 00:57:48;;;;;;;11.68;5.18;;;7.20;99.90;;;;;;5033903;28;20192;-74
2021/04/03 01:00:18;;;;;;;8.07;4.43;;;7.20;99.90;;;;;;5002770;28;20630;-75
2021/04/03 01:02:46;;;;;;;11.65;4.30;;;7.10;99.90;;;;;;5014199;28;20235;-76
2021/04/03 01:05:16;;;;;;;13.05;4.28;;;7.10;99.90;;;;;;4996910;28;20732;-76
2021/04/03 01:07:47;;;;;;;11.60;4.70;;;7.00;99.90;;;;;;5032079;28;20717;-75
2021/04/03 01:10:18;;;;;;;11.50;5.95;;;7.10;99.90;;;;;;5029723;28;20446;-75
2021/04/03 01:13:16;;;;;;;14.25;4.93;;;7.00;99.90;;;;;;4998116;28;20217;-74
2021/04/03 01:16:13;;;;;;;9.23;4.60;;;7.00;99.90;;;;;;5031162;28;20256;-73
2021/04/03 01:19:04;;;;;;;11.13;5.00;;;7.00;99.90;;;;;;5030403;28;20181;-76
2021/04/03 01:21:50;;;;;;;16.33;5.85;;;7.00;99.90;;;;;;5031539;28;20208;-75
2021/04/03 01:24:44;;;;;;;17.83;7.75;;;7.00;99.90;;;;;;5017098;28;20576;-74
2021/04/03 01:27:18;;;;;;;10.02;5.28;;;7.10;99.90;;;;;;5035167;28;20192;-74
2021/04/03 01:29:48;;;;;;;14.05;4.35;;;7.10;99.90;;;;;;5033802;28;20308;-74
2021/04/03 01:32:27;;;;;;;11.35;5.25;;;7.10;99.90;;;;;;5035357;28;20181;-73
2021/04/03 01:35:01;;;;;;;7.63;4.40;;;7.10;99.90;;;;;;5017219;28;20707;-73
2021/04/03 01:37:30;;;;;;;8.23;4.85;;;7.00;99.90;;;;;;5017815;28;20743;-77
2021/04/03 01:39:59;;;;;;;10.55;4.18;;;7.00;99.90;;;;;;5033565;28;20756;-75
2021/04/03 01:42:33;;;;;;;11.75;4.60;;;7.10;99.90;;;;;;5035263;28;20256;-74
2021/04/03 01:45:04;;;;;;;14.10;5.65;;;7.10;99.90;;;;;;5028363;28;20227;-73
2021/04/03 01:47:34;;;;;;;12.55;4.68;;;7.10;99.90;;;;;;5037176;28;20230;-74
2021/04/03 01:50:04;;;;;;;13.65;4.97;;;7.10;99.90;;;;;;5036744;28;20624;-77
2021/04/03 01:52:33;;;;;;;12.13;5.10;;;7.10;99.90;;;;;;5035003;28;20196;-74
2021/04/03 01:55:08;;;;;;;10.07;4.55;;;7.10;99.90;;;;;;5016540;28;20236;-75
2021/04/03 01:57:35;;;;;;;11.15;4.50;;;7.10;99.90;;;;;;5053506;28;20189;-74
2021/04/03 02:00:15;;;;;;;11.02;4.13;;;7.10;99.90;;;;;;5007109;28;20223;-76
2021/04/03 02:02:57;;;;;;;9.07;4.68;;;7.10;99.90;;;;;;5017369;28;20197;-74
2021/04/03 02:05:26;;;;;;;7.57;4.40;;;7.00;99.90;;;;;;5033835;28;20307;-73
2021/04/03 02:08:33;;;;;;;14.13;4.88;;;7.00;99.90;;;;;;5026569;28;20282;-74
2021/04/03 02:11:20;;;;;;;12.15;4.88;;;7.00;99.90;;;;;;5033552;28;20756;-74
2021/04/03 02:13:50;;;;;;;7.70;4.22;;;7.00;99.90;;;;;;5032563;28;20601;-74
2021/04/03 02:16:18;;;;;;;8.13;4.43;;;7.00;99.90;;;;;;5034388;28;20193;-75
2021/04/03 02:18:46;;;;;;;10.30;5.60;;;7.10;99.90;;;;;;5034157;28;20201;-75
2021/04/03 02:21:13;;;;;;;13.18;4.60;;;7.00;99.90;;;;;;5016625;28;20192;-76
2021/04/03 02:23:45;;;;;;;13.65;5.80;;;7.00;99.90;;;;;;5031969;28;20196;-74
2021/04/03 02:26:12;;;;;;;9.77;5.97;;;7.00;99.90;;;;;;5016529;28;20233;-72
2021/04/03 02:28:39;;;;;;;11.98;6.25;;;7.00;99.90;;;;;;5016415;28;20228;-77
2021/04/03 02:31:06;;;;;;;9.63;4.90;;;7.00;99.90;;;;;;5037627;28;20183;-74
2021/04/03 02:33:38;;;;;;;15.25;5.80;;;7.00;99.90;;;;;;5036057;28;20841;-73
2021/04/03 02:36:05;;;;;;;12.68;5.72;;;6.90;99.90;;;;;;5054041;28;20193;-74
2021/04/03 02:38:31;;;;;;;9.73;4.28;;;6.80;99.90;;;;;;5037824;28;20329;-76
2021/04/03 02:41:06;;;;;;;9.25;3.20;;;6.70;99.90;;;;;;5016231;28;20618;-75
2021/04/03 02:44:02;;;;;;;15.00;3.88;;;6.70;99.90;;;;;;5034436;28;20276;-73
2021/04/03 02:46:39;;;;;;;14.60;5.32;;;6.70;99.90;;;;;;5031126;28;20213;-73
2021/04/03 02:49:17;;;;;;;9.73;5.35;;;6.70;99.90;;;;;;5017308;28;20634;-76
2021/04/03 02:51:53;;;;;;;9.57;3.60;;;6.70;99.90;;;;;;5053791;28;20258;-75
2021/04/03 02:54:23;;;;;;;11.68;4.35;;;6.70;99.90;;;;;;5010002;28;20248;-73
2021/04/03 02:56:52;;;;;;;5.07;3.15;;;6.70;99.90;;;;;;5033645;28;20205;-75
2021/04/03 02:59:27;;;;;;;6.28;3.90;;;6.70;99.90;;;;;;5015744;28;20244;-77
2021/04/03 03:01:57;;;;;;;14.32;3.85;;;6.70;99.90;;;;;;5033819;28;20177;-77
2021/04/03 03:04:26;;;;;;;17.50;4.03;;;6.60;99.90;;;;;;5033565;28;20229;-74
2021/04/03 03:06:55;;;;;;;12.32;3.40;;;6.60;99.90;;;;;;5052336;28;20203;-75
2021/04/03 03:09:23;;;;;;;9.23;3.80;;;6.60;99.90;;;;;;5025772;28;20248;-77
2021/04/03 03:11:56;;;;;;;11.85;3.83;;;6.60;99.90;;;;;;5033568;28;20285;-76
2021/04/03 03:14:25;;;;;;;9.10;4.00;;;6.60;99.90;;;;;;5031548;28;20265;-75
2021/04/03 03:16:54;;;;;;;10.50;3.65;;;6.60;99.90;;;;;;5032261;28;20185;-75
2021/04/03 03:19:23;;;;;;;9.18;3.78;;;6.60;99.90;;;;;;5015385;28;20580;-75
2021/04/03 03:21:52;;;;;;;14.43;4.30;;;6.50;99.90;;;;;;5033635;28;20181;-76
2021/04/03 03:24:20;;;;;;;8.25;3.15;;;6.50;99.90;;;;;;5015693;28;20231;-74
2021/04/03 03:26:47;;;;;;;10.90;3.10;;;6.50;99.90;;;;;;5026327;28;20208;-74
2021/04/03 03:29:17;;;;;;;10.25;5.35;;;6.60;99.90;;;;;;5033922;28;20228;-76
2021/04/03 03:31:46;;;;;;;14.27;4.40;;;6.50;99.90;;;;;;5052926;28;20184;-75
2021/04/03 03:34:15;;;;;;;11.55;4.07;;;6.50;99.90;;;;;;5040796;28;20306;-73
2021/04/03 03:36:48;;;;;;;10.18;4.10;;;6.50;99.90;;;;;;5054851;28;20214;-74
2021/04/03 03:39:19;;;;;;;12.90;3.65;;;6.50;99.90;;;;;;5021247;28;20225;-74
2021/04/03 03:41:47;;;;;;;8.40;2.90;;;6.50;99.90;;;;;;5015226;28;20208;-75
2021/04/03 03:44:15;;;;;;;11.07;3.10;;;6.40;99.90;;;;;;5014206;28;20287;-74
2021/04/03 03:46:41;;;;;;;13.02;3.70;;;6.40;99.90;;;;;;5014457;28;20213;-76
2021/04/03 03:49:09;;;;;;;12.77;3.70;;;6.40;99.90;;;;;;5031147;28;20229;-76
2021/04/03 03:51:36;;;;;;;8.52;2.92;;;6.50;99.90;;;;;;5031827;28;20196;-75
2021/04/03 03:54:08;;;;;;;11.57;3.45;;;6.50;99.90;;;;;;5032282;28;20244;-73
2021/04/03 03:56:35;;;;;;;10.45;2.83;;;6.50;99.90;;;;;;5014861;28;20213;-73
2021/04/03 03:59:03;;;;;;;5.53;2.67;;;6.50;99.90;;;;;;5014033;28;20221;-76
2021/04/03 04:01:31;;;;;;;9.55;2.40;;;6.50;99.90;;;;;;5032856;28;20181;-77
2021/04/03 04:03:59;;;;;;;12.93;3.00;;;6.50;99.90;;;;;;5032158;28;20225;-74
2021/04/03 04:06:26;;;;;;;12.77;4.13;;;6.40;99.90;;;;;;5014604;28;20303;-73
2021/04/03 04:08:54;;;;;;;9.98;2.85;;;6.40;99.30;;;;;;5014594;28;20217;-76
2021/04/03 04:11:22;;;;;;;8.27;2.90;;;6.40;99.20;;;;;;5031121;28;20193;-74
2021/04/03 04:13:57;;;;;;;11.35;3.00;;;6.40;99.00;;;;;;4998752;28;20315;-72
2021/04/03 04:16:33;;;;;;;7.97;2.50;;;6.40;98.90;;;;;;5015738;28;20341;-74
2021/04/03 04:19:01;;;;;;;9.70;2.40;;;6.40;98.70;;;;;;5014344;28;20232;-76
2021/04/03 04:21:27;;;;;;;9.75;3.22;;;6.40;97.50;;;;;;5032294;28;20185;-75
2021/04/03 04:23:54;;;;;;;12.25;3.13;;;6.40;96.70;;;;;;5032026;28;24427;-73
2021/04/03 04:26:22;;;;;;;7.03;2.72;;;6.40;96.20;;;;;;5039641;28;20203;-74
2021/04/03 04:28:52;;;;;;;20.65;2.65;;;6.40;96.30;;;;;;5021715;28;20181;-74
2021/04/03 04:31:22;;;;;;;9.68;2.95;;;6.40;95.80;;;;;;5014542;28;20647;-77
2021/04/03 04:33:57;;;;;;;9.30;2.80;;;6.40;95.70;;;;;;5030650;28;20220;-73
2021/04/03 04:36:24;;;;;;;10.55;3.90;;;6.50;95.60;;;;;;5032274;28;20276;-74
2021/04/03 04:38:52;;;;;;;6.72;2.30;;;6.60;95.80;;;;;;5013810;28;20196;-76
2021/04/03 04:41:22;;;;;;;8.55;2.78;;;6.60;95.50;;;;;;5032134;28;20177;-76
2021/04/03 04:43:51;;;;;;;6.60;2.30;;;6.60;96.10;;;;;;5031572;28;20176;-76
2021/04/03 04:46:18;;;;;;;6.55;2.75;;;6.60;96.30;;;;;;5014061;28;20205;-75
2021/04/03 04:48:51;;;;;;;10.73;3.00;;;6.60;96.50;;;;;;5030004;28;20351;-77
2021/04/03 04:51:23;;;;;;;10.73;3.00;;;6.60;96.90;;;;;;5043364;28;20264;-76
2021/04/03 04:53:53;;;;;;;10.68;2.95;;;6.60;97.30;;;;;;5016929;28;20201;-73
2021/04/03 04:56:26;;;;;;;15.00;3.53;;;6.50;97.90;;;;;;5035344;28;20200;-73
2021/04/03 04:58:53;;;;;;;9.05;2.80;;;6.50;98.10;;;;;;5047815;28;20185;-76
2021/04/03 05:01:24;;;;;;;9.65;2.90;;;6.40;98.70;;;;;;5031848;28;20189;-76
2021/04/03 05:03:50;;;;;;;8.57;2.90;;;6.50;98.90;;;;;;5031210;28;20188;-75
2021/04/03 05:06:16;;;;;;;9.43;2.72;;;6.60;98.70;;;;;;5014294;28;20232;-73
2021/04/03 05:08:43;;;;;;;9.38;2.97;;;6.60;98.90;;;;;;5035749;28;20235;-76
2021/04/03 05:11:09;;;;;;;12.13;3.90;;;6.50;99.50;;;;;;5050231;28;20287;-77
2021/04/03 05:13:35;;;;;;;9.73;2.83;;;6.50;99.90;;;;;;5050120;28;20582;-76
2021/04/03 05:16:03;;;;;;;14.57;3.45;;;6.40;99.90;;;;;;5029839;28;20212;-74
2021/04/03 05:18:29;;;;;;;7.50;2.60;;;6.50;99.90;;;;;;5031777;28;20239;-76
2021/04/03 05:20:56;;;;;;;10.88;2.70;;;6.50;99.90;;;;;;5013402;28;20227;-76
2021/04/03 05:23:22;;;;;;;12.70;3.28;;;6.50;99.90;;;;;;5031831;28;20280;-74
2021/04/03 05:25:48;;;;;;;12.50;3.47;;;6.40;99.90;;;;;;5030650;28;20229;-74
2021/04/03 05:28:15;;;;;;;7.97;2.60;;;6.50;99.90;;;;;;5030443;28;20177;-74
2021/04/03 05:30:42;;;;;;;14.50;3.60;;;6.50;99.90;;;;;;5031043;28;20311;-76
2021/04/03 05:33:10;;;;;;;12.13;3.78;;;6.40;99.90;;;;;;5031480;28;20234;-75
2021/04/03 05:35:36;;;;;;;8.15;2.75;;;6.40;99.90;;;;;;5030646;28;20217;-75
2021/04/03 05:38:03;;;;;;;10.07;3.47;;;6.40;99.90;;;;;;5040932;28;20580;-73
2021/04/03 05:40:30;;;;;;;10.20;2.65;;;6.40;99.90;;;;;;5053151;28;20643;-76
2021/04/03 05:42:58;;;;;;;9.90;3.17;;;6.50;99.90;;;;;;5071314;28;20242;-76
2021/04/03 05:45:30;;;;;;;14.73;3.92;;;6.40;99.90;;;;;;5044339;28;20281;-74
2021/04/03 05:47:58;;;;;;;7.75;4.15;;;6.50;99.90;;;;;;5043216;28;20197;-73
2021/04/03 05:50:31;;;;;;;10.27;3.33;;;6.40;99.90;;;;;;5013095;28;20228;-75
2021/04/03 05:52:58;;;;;;;14.77;3.50;;;6.40;99.90;;;;;;5031470;28;20180;-76
2021/04/03 05:55:26;;;;;;;11.38;3.28;;;6.50;99.90;;;;;;5030457;28;20232;-74
2021/04/03 05:57:55;;;;;;;8.75;3.38;;;6.50;99.90;;;;;;5013399;28;20216;-75
2021/04/03 06:00:22;;;;;;;13.65;2.92;;;6.50;99.90;;;;;;5008239;28;20296;-75
2021/04/03 06:02:51;;;;;;;10.73;4.18;;;6.50;99.90;;;;;;5031291;28;20666;-76
2021/04/03 06:05:18;;;;;;;12.73;4.53;;;6.60;99.90;;;;;;5030580;28;20648;-74
2021/04/03 06:07:47;;;;;;;12.68;3.30;;;6.50;99.90;;;;;;5013966;28;20181;-75
2021/04/03 06:10:14;;;;;;;15.57;4.22;;;6.50;99.90;;;;;;5032862;28;20248;-76
2021/04/03 06:12:43;;;;;;;9.98;3.17;;;6.50;99.90;;;;;;5034887;28;20533;-76
2021/04/03 06:15:34;;;;;;;7.57;3.72;;;6.40;99.90;;;;;;5016482;28;20217;-74
2021/04/03 06:18:12;;;;;;;8.02;3.17;;;6.40;99.90;;;;;;5017155;28;20185;-74
2021/04/03 06:20:42;;;;;;;9.57;3.53;;;6.40;99.90;;;;;;5032717;28;20221;-75
2021/04/03 06:23:10;;;;;;;11.75;2.88;;;6.40;99.90;;;;;;5034886;28;20267;-76
2021/04/03 06:25:54;;;;;;;6.95;2.95;;;6.40;99.90;;;;;;5032235;28;20295;-75
2021/04/03 06:28:32;;;;;;;15.48;3.67;;;6.50;99.90;;;;;;5017084;28;20243;-74
2021/04/03 06:31:14;;;;;;;11.57;3.97;;;6.60;99.90;;;;;;5016541;28;20224;-75
2021/04/03 06:33:40;;;;;;;13.23;3.72;;;6.60;99.90;;;;;;5033876;28;20254;-77
2021/04/03 06:36:08;;;;;;;13.38;3.83;;;6.60;99.90;;;;;;5016567;28;20251;-73
2021/04/03 06:38:35;;;;;;;11.55;3.60;;;6.60;99.90;;;;;;5000404;28;20177;-76
2021/04/03 06:41:20;;;;;;;15.82;4.18;;;6.70;99.90;;;;;;5032590;28;20232;-76
2021/04/03 06:44:16;;;;;;;14.10;3.35;;;6.70;99.90;;;;;;5032493;28;20287;-76
2021/04/03 06:46:48;;;;;;;10.80;2.70;;;6.80;99.90;;;;;;5006223;28;20224;-73
2021/04/03 06:49:16;;;;;;;13.25;3.40;;;6.90;99.90;;;;;;5015830;28;20769;-75
2021/04/03 06:51:43;;;;;;;9.05;2.90;;;6.90;99.90;;;;;;5033984;28;20204;-75
2021/04/03 06:54:11;;;;;;;13.05;3.60;;;7.00;99.90;;;;;;5015685;28;20221;-76
2021/04/03 06:56:38;;;;;;;15.18;3.92;;;7.00;99.90;;;;;;5032458;28;20197;-74
2021/04/03 06:59:10;;;;;;;10.73;3.33;;;7.10;99.90;;;;;;5019459;28;20224;-75
2021/04/03 07:01:44;;;;;;;13.80;4.57;;;7.10;99.90;;;;;;5052686;28;20200;-74
2021/04/03 07:04:39;;;;;;;12.32;3.65;;;7.10;99.90;;;;;;5034984;28;20812;-76
2021/04/03 07:07:07;;;;;;;9.90;4.43;;;7.30;99.90;;;;;;5044114;28;20698;-75
2021/04/03 07:09:38;;;;;;;9.60;3.90;;;7.50;99.60;;;;;;5026837;28;20307;-74
2021/04/03 07:12:06;;;;;;;15.07;4.30;;;7.80;98.50;;;;;;5053678;28;20180;-74
2021/04/03 07:14:35;;;;;;;20.08;5.10;;;8.00;98.00;;;;;;5029290;28;20250;-75
2021/04/03 07:17:03;;;;;;;14.48;3.38;;;8.10;97.10;;;;;;5053030;28;20215;-73
2021/04/03 07:19:36;;;;;;;11.15;4.05;;;8.20;96.50;;;;;;5043075;28;20216;-73
2021/04/03 07:22:03;;;;;;;14.00;5.35;;;8.40;96.00;;;;;;5052811;28;20188;-75
2021/04/03 07:24:30;;;;;;;10.63;4.68;;;8.40;96.40;;;;;;5012889;28;20224;-74
2021/04/03 07:26:57;;;;;;;11.27;4.70;;;8.40;98.50;;;;;;5041773;28;20299;-73
2021/04/03 07:29:39;;;;;;;9.40;4.28;;;8.50;97.80;;;;;;5045220;28;20229;-73
2021/04/03 07:32:36;;;;;;;17.45;4.78;;;8.90;95.70;;;;;;5052234;28;20184;-75
2021/04/03 07:35:38;;;;;;;11.47;4.70;;;9.10;95.50;;;;;;5034677;28;20622;-74
2021/04/03 07:38:10;;;;;;;11.83;4.50;;;9.40;95.20;;;;;;4974736;28;20496;-73
2021/04/03 07:40:41;;;;;;;17.03;5.50;;;9.90;91.80;;;;;;4992171;28;20513;-76
2021/04/03 07:43:44;;;;;;;10.83;4.20;;;10.00;91.20;;;;;;5041515;28;20522;-77
2021/04/03 07:46:23;;;;;;;12.17;4.07;;;10.10;91.00;;;;;;5031769;28;20526;-74
2021/04/03 07:48:57;;;;;;;18.93;4.53;;;10.00;89.50;;;;;;5040811;28;20431;-74
2021/04/03 07:51:24;;;;;;;9.37;3.97;;;10.00;88.70;;;;;;5034622;28;20434;-77
2021/04/03 07:53:52;;;;;;;16.07;4.83;;;10.00;89.60;;;;;;5022343;28;20452;-75
2021/04/03 07:56:20;;;;;;;13.00;4.30;;;9.80;90.50;;;;;;5042152;28;20550;-75
2021/04/03 07:58:48;;;;;;;9.97;4.03;;;9.80;90.50;;;;;;5049421;28;20781;-76
2021/04/03 08:01:25;;;;;;;18.50;5.10;;;9.80;90.50;;;;;;5051107;28;20434;-76
2021/04/03 08:04:04;;;;;;;10.97;4.40;;;9.80;90.40;;;;;;5051693;28;20447;-76
2021/04/03 08:06:40;;;;;;;10.77;4.17;;;9.80;89.80;;;;;;5033851;28;20559;-74
2021/04/03 08:09:15;;;;;;;12.07;5.87;;;9.90;88.00;;;;;;5042874;28;20559;-76
2021/04/03 08:11:44;;;;;;;18.10;6.33;;;9.90;86.60;;;;;;5034020;28;20956;-74
2021/04/03 08:14:12;;;;;;;14.30;6.37;;;9.80;87.30;;;;;;5043707;28;20474;-76
2021/04/03 08:16:40;;;;;;;11.60;6.33;;;9.90;89.30;;;;;;5033265;28;20455;-77
2021/04/03 08:19:07;;;;;;;15.80;6.70;;;9.90;87.40;;;;;;5030256;28;20467;-74
2021/04/03 08:21:45;;;;;;;19.23;6.47;;;9.80;88.80;;;;;;4999874;28;20478;-76
2021/04/03 08:24:19;;;;;;;12.20;6.70;;;9.90;90.40;;;;;;5032845;28;20464;-77
2021/04/03 08:26:47;;;;;;;15.80;6.77;;;10.40;87.30;;;;;;5031641;28;20464;-75
2021/04/03 08:29:27;;;;;;;21.90;7.43;;;10.70;82.80;;;;;;5030425;28;20464;-74
2021/04/03 08:31:55;;;;;;;13.60;7.00;;;10.60;84.20;;;;;;5015588;28;20439;-79
2021/04/03 08:34:23;;;;;;;14.43;8.43;;;10.70;83.50;;;;;;5016949;28;20452;-76
2021/04/03 08:36:50;;;;;;;25.17;8.27;;;11.00;83.10;;;;;;5024292;28;20469;-74
2021/04/03 08:39:22;;;;;;;17.50;8.37;;;11.30;81.20;;;;;;5029820;28;20460;-76
2021/04/03 08:41:51;;;;;;;13.90;8.60;;;11.50;77.20;;;;;;5035806;28;20450;-76
2021/04/03 08:44:19;;;;;;;16.57;7.40;;;11.60;74.10;;;;;;5033234;28;20498;-76
2021/04/03 08:46:49;;;;;;;21.77;9.80;;;11.50;75.60;;;;;;5035492;28;20518;-77
2021/04/03 08:49:24;;;;;;;18.63;10.03;;;11.60;77.20;;;;;;5033158;28;20477;-74
2021/04/03 08:51:52;;;;;;;16.60;10.60;;;11.50;74.80;;;;;;5047765;28;20485;-77
2021/04/03 08:54:19;;;;;;;12.73;8.90;;;11.80;73.60;;;;;;5044343;28;20460;-76
2021/04/03 08:56:46;;;;;;;13.47;10.10;;;12.10;69.90;;;;;;5051516;28;20466;-75
2021/04/03 08:59:22;;;;;;;18.47;10.63;;;12.40;70.10;;;;;;5043683;28;20499;-78
2021/04/03 09:01:52;;;;;;;17.27;10.90;;;12.50;70.00;;;;;;5047441;28;20427;-77
2021/04/03 09:04:20;;;;;;;21.27;11.80;;;12.40;73.00;;;;;;5032932;28;20878;-76
2021/04/03 09:06:52;;;;;;;19.93;10.00;;;12.00;74.40;;;;;;5048673;28;20557;-74
2021/04/03 09:09:20;;;;;;;20.23;10.60;;;11.90;74.30;;;;;;5015443;28;20461;-73
2021/04/03 09:11:54;;;;;;;20.03;11.27;;;11.50;74.10;;;;;;5050644;28;20424;-76
2021/04/03 09:14:35;;;;;;;19.40;10.67;;;11.10;75.00;;;;;;5046066;28;20463;-74
2021/04/03 09:17:04;;;;;;;13.30;8.87;;;10.90;75.40;;;;;;5032257;28;20831;-74
2021/04/03 09:19:36;;;;;;;17.97;10.40;;;11.20;73.30;;;;;;5026531;28;20512;-76
2021/04/03 09:22:04;;;;;;;14.70;8.77;;;11.40;73.50;;;;;;5033469;28;20498;-76
2021/04/03 09:24:37;;;;;;;16.53;10.10;;;11.40;74.90;;;;;;5028667;28;20788;-75
2021/04/03 09:27:20;;;;;;;16.60;9.87;;;11.70;72.40;;;;;;5040171;28;20443;-76
2021/04/03 09:29:51;;;;;;;18.83;10.57;;;12.00;70.00;;;;;;5028442;28;20683;-74
2021/04/03 09:32:17;;;;;;;18.03;11.00;;;12.00;69.00;;;;;;5032625;28;20470;-76
2021/04/03 09:34:44;;;;;;;18.83;10.40;;;12.00;68.10;;;;;;5024157;28;20508;-76
2021/04/03 09:37:13;;;;;;;13.80;10.27;;;12.10;70.50;;;;;;5047332;28;20431;-73
2021/04/03 09:39:46;;;;;;;19.33;10.20;;;12.20;71.20;;;;;;5026563;28;20512;-74
2021/04/03 09:42:18;;;;;;;20.43;11.43;;;12.40;67.30;;;;;;5050582;28;20431;-76
2021/04/03 09:44:45;;;;;;;17.53;13.03;;;12.40;69.30;;;;;;5016182;28;20487;-74
2021/04/03 09:47:13;;;;;;;24.40;13.83;;;12.50;67.90;;;;;;5036692;28;20432;-74
2021/04/03 09:49:40;;;;;;;21.60;12.93;;;12.50;71.90;;;;;;5038102;28;20583;-74
2021/04/03 09:52:08;;;;;;;25.67;12.87;;;12.60;69.70;;;;;;5052032;28;20486;-77
2021/04/03 09:54:35;;;;;;;17.73;12.70;;;12.70;68.40;;;;;;5054011;28;20811;-77
2021/04/03 09:57:03;;;;;;;18.90;13.70;;;12.70;68.00;;;;;;5054380;28;20519;-76
2021/04/03 09:59:30;;;;;;;18.13;12.50;;;12.80;68.20;;;;;;5052249;28;20495;-77
2021/04/03 10:01:58;;;;;;;20.53;12.10;;;12.90;66.30;;;;;;5054823;28;20430;-77
2021/04/03 10:04:25;;;;;;;21.40;13.57;;;12.90;66.80;;;;;;5028506;28;20511;-79
2021/04/03 10:06:54;;;;;;;19.07;14.07;;;13.20;66.50;;;;;;5041880;28;20544;-77
2021/04/03 10:09:21;;;;;;;19.60;13.23;;;13.30;66.90;;;;;;5034923;28;20468;-77
2021/04/03 10:11:52;;;;;;;21.00;13.97;;;13.50;66.00;;;;;;5022031;28;20433;-77
2021/04/03 10:14:19;;;;;;;18.03;13.57;;;13.60;63.90;;;;;;5054035;28;21984;-77
2021/04/03 10:16:45;;;;;;;19.50;14.50;;;13.80;64.90;;;;;;5039487;28;20545;-79
2021/04/03 10:19:15;;;;;;;22.43;14.07;;;14.00;61.40;;;;;;5047149;28;20455;-75
2021/04/03 10:21:42;;;;;;;27.13;15.87;;;14.00;64.10;;;;;;5054945;28;20433;-76
2021/04/03 10:24:10;;;;;;;19.80;14.57;;;14.00;64.70;;;;;;5057127;28;20465;-77
2021/04/03 10:26:37;;;;;;;27.10;17.70;;;14.00;64.50;;;;;;5022917;28;20456;-78
2021/04/03 10:29:04;;;;;;;21.20;17.10;;;13.70;65.70;;;;;;5042552;28;20462;-77
2021/04/03 10:31:31;;;;;;;28.03;17.33;;;13.40;65.90;;;;;;5046558;28;20456;-78
2021/04/03 10:33:58;;;;;;;21.80;15.87;;;13.20;67.10;;;;;;5053413;28;20455;-76
2021/04/03 10:36:25;;;;;;;26.00;18.30;;;12.80;68.30;;;;;;5053742;28;20491;-74
2021/04/03 10:38:52;;;;;;;24.87;16.80;;;12.70;66.60;;;;;;5041281;28;20522;-75
2021/04/03 10:41:18;;;;;;;25.40;18.83;;;12.50;67.60;;;;;;5052925;28;20471;-74
2021/04/03 10:43:45;;;;;;;20.53;17.80;;;12.30;72.70;;;;;;5034692;28;20804;-76
2021/04/03 10:46:11;;;;;;;21.13;16.37;;;12.20;71.10;;;;;;5051937;28;20470;-77
2021/04/03 10:48:38;;;;;;;25.77;17.53;;;12.20;74.00;;;;;;5052857;28;20435;-77
2021/04/03 10:51:06;;;;;;;20.60;16.13;;;12.20;72.80;;;;;;5052434;28;20549;-74
2021/04/03 10:53:33;;;;;;;21.80;16.23;;;12.30;70.00;;;;;;5032436;28;20458;-76
2021/04/03 10:55:59;;;;;;;26.73;17.90;;;12.40;69.70;;;;;;5049086;28;20475;-77
2021/04/03 10:58:26;;;;;;;25.00;16.90;;;12.50;69.90;;;;;;5053621;28;20820;-79
2021/04/03 11:00:54;;;;;;;21.50;16.43;;;12.70;69.60;;;;;;5048453;28;20466;-76
2021/04/03 11:03:20;;;;;;;25.23;15.90;;;12.90;69.00;;;;;;5030821;28;20438;-74
2021/04/03 11:05:47;;;;;;;18.20;14.97;;;13.00;69.10;;;;;;5052238;28;20528;-74
2021/04/03 11:08:13;;;;;;;18.53;13.37;;;13.10;70.20;;;;;;5032078;28;20443;-76
2021/04/03 11:10:40;;;;;;;19.97;13.70;;;13.10;67.20;;;;;;5046822;28;20561;-76
2021/04/03 11:13:07;;;;;;;18.40;13.90;;;13.20;65.40;;;;;;5049463;28;20439;-77
2021/04/03 11:15:36;;;;;;;14.00;12.33;;;13.10;65.70;;;;;;5042723;28;20459;-75
2021/04/03 11:18:06;;;;;;;15.40;12.47;;;13.30;65.00;;;;;;5053012;28;20939;-76
2021/04/03 11:20:32;;;;;;;14.93;11.03;;;13.20;64.00;;;;;;5052431;28;20477;-77
2021/04/03 11:22:59;;;;;;;16.80;11.87;;;13.00;65.50;;;;;;5047532;28;20435;-76
2021/04/03 11:25:25;;;;;;;21.07;12.40;;;12.90;68.40;;;;;;5050565;28;20520;-76
2021/04/03 11:27:52;;;;;;;12.83;9.90;;;13.00;67.60;;;;;;5051909;28;20446;-78
2021/04/03 11:30:19;;;;;;;17.00;9.70;;;13.10;67.70;;;;;;5047968;28;20463;-79
2021/04/03 11:32:51;;;;;;;18.63;8.80;;;13.10;67.10;;;;;;5053637;28;20824;-79
2021/04/03 11:35:20;;;;;;;14.70;8.60;;;12.90;67.90;;;;;;5051738;28;20474;-78
2021/04/03 11:37:48;;;;;;;17.10;8.23;;;12.90;64.80;;;;;;5035278;28;20455;-77
2021/04/03 11:40:20;;;;;;;15.60;6.70;;;12.90;66.60;;;;;;5044348;28;20486;-76
2021/04/03 11:42:52;;;;;;;14.50;7.47;;;13.00;69.10;;;;;;5053324;28;20442;-77
2021/04/03 11:45:20;;;;;;;21.10;8.20;;;13.10;69.40;;;;;;5010221;28;20471;-79
2021/04/03 11:47:48;;;;;;;12.00;7.50;;;13.10;68.60;;;;;;5029895;28;20435;-80
2021/04/03 11:50:15;;;;;;;18.90;7.70;;;13.00;68.40;;;;;;5052164;28;20471;-77
2021/04/03 11:52:43;;;;;;;13.83;7.30;;;13.10;69.50;;;;;;5063360;28;20514;-79
2021/04/03 11:55:11;;;;;;;14.50;8.83;;;13.20;67.40;;;;;;5051880;28;20470;-78
2021/04/03 11:57:38;;;;;;;14.00;8.03;;;13.20;66.90;;;;;;5053064;28;20428;-79
2021/04/03 12:00:08;;;;;;;15.40;8.13;;;13.40;67.50;;;;;;5047829;28;20467;-78
2021/04/03 12:02:36;;;;;;;17.83;9.77;;;13.30;68.10;;;;;;5017730;28;20435;-78
2021/04/03 12:05:05;;;;;;;15.73;10.10;;;13.40;66.50;;;;;;5033731;28;20564;-79
2021/04/03 12:07:36;;;;;;;16.93;10.80;;;13.30;67.20;;;;;;5030120;28;20500;-79
2021/04/03 12:10:05;;;;;;;17.50;10.63;;;13.40;67.80;;;;;;5029479;28;20479;-79
2021/04/03 12:12:32;;;;;;;14.77;11.03;;;13.50;67.40;;;;;;5041657;28;20431;-78
2021/04/03 12:14:58;;;;;;;17.97;11.40;;;13.60;67.50;;;;;;5039350;28;20468;-80
2021/04/03 12:17:25;;;;;;;18.00;12.20;;;13.60;65.30;;;;;;5043595;28;20929;-78
2021/04/03 12:19:55;;;;;;;16.23;11.87;;;13.50;67.10;;;;;;5050150;28;20474;-77
2021/04/03 12:22:24;;;;;;;18.53;12.33;;;13.50;64.70;;;;;;5043113;28;20444;-80
2021/04/03 12:24:50;;;;;;;19.20;13.93;;;13.60;67.10;;;;;;5050687;28;20988;-82
2021/04/03 12:27:17;;;;;;;17.23;12.07;;;13.70;69.40;;;;;;5017632;28;20463;-75
2021/04/03 12:29:44;;;;;;;24.30;12.77;;;13.80;69.80;;;;;;5042323;28;20464;-78
2021/04/03 12:32:11;;;;;;;21.33;12.53;;;14.00;66.30;;;;;;5034064;28;20436;-80
2021/04/03 12:34:37;;;;;;;16.10;11.10;;;13.90;65.50;;;;;;5050701;28;20538;-80
2021/04/03 12:37:04;;;;;;;17.27;11.60;;;13.80;65.70;;;;;;5051262;28;20797;-78
2021/04/03 12:39:30;;;;;;;16.83;10.83;;;13.70;68.20;;;;;;5044956;28;20856;-81
2021/04/03 12:41:57;;;;;;;24.77;11.70;;;13.70;66.80;;;;;;5051706;28;20431;-80
2021/04/03 12:44:27;;;;;;;15.57;11.17;;;13.70;68.70;;;;;;5028723;28;20455;-78
2021/04/03 12:46:54;;;;;;;27.70;13.27;;;13.50;69.70;;;;;;5051114;28;20427;-80
2021/04/03 12:49:20;;;;;;;17.77;13.33;;;13.40;69.40;;;;;;5032860;28;20486;-81
2021/04/03 12:51:58;;;;;;;20.70;11.67;;;13.20;67.70;;;;;;5051383;28;20438;-78
2021/04/03 12:54:28;;;;;;;18.30;12.00;;;13.10;68.80;;;;;;5043679;28;20562;-78
2021/04/03 12:56:54;;;;;;;16.80;12.43;;;13.10;69.70;;;;;;5034040;28;20986;-78
2021/04/03 12:59:21;;;;;;;21.97;13.20;;;13.10;70.40;;;;;;5044236;28;20456;-80